createdAt,value
2018-08-31T00:01:12.452Z,96.70
2018-08-31T00:04:50.953Z,96.70
2018-08-31T00:07:32.444Z,96.20
2018-08-31T00:12:18.733Z,96.60
2018-08-31T00:14:46.790Z,96.70
2018-08-31T00:17:14.904Z,96.60
2018-08-31T00:19:42.954Z,96.40
2018-08-31T00:22:11.015Z,96.70
2018-08-31T00:24:50.876Z,96.80
2018-08-31T00:27:30.569Z,97.00
2018-08-31T00:30:09.972Z,97.00
2018-08-31T00:33:05.733Z,96.80
2018-08-31T00:36:17.324Z,96.90
2018-08-31T00:38:56.947Z,96.40
2018-08-31T00:41:33.783Z,96.80
2018-08-31T00:44:13.153Z,97.30
2018-08-31T00:46:41.212Z,97.40
2018-08-31T00:49:09.265Z,97.90
2018-08-31T00:51:37.323Z,98.00
2018-08-31T00:54:05.579Z,98.20
2018-08-31T00:56:33.629Z,98.50
2018-08-31T00:59:01.678Z,98.80
2018-08-31T01:01:29.740Z,99.00
2018-08-31T01:03:57.779Z,98.90
2018-08-31T01:06:25.835Z,98.90
2018-08-31T01:08:53.893Z,99.00
2018-08-31T01:11:21.949Z,98.90
2018-08-31T01:13:49.997Z,99.00
2018-08-31T01:16:18.059Z,98.90
2018-08-31T01:18:46.120Z,98.70
2018-08-31T01:21:14.190Z,98.70
2018-08-31T01:23:42.238Z,98.80
2018-08-31T01:26:10.276Z,99.30
2018-08-31T01:28:38.318Z,99.70
2018-08-31T01:31:06.386Z,99.60
2018-08-31T01:33:34.432Z,99.70
2018-08-31T01:36:02.481Z,99.80
2018-08-31T01:38:30.528Z,99.50
2018-08-31T01:40:58.584Z,99.50
2018-08-31T01:43:26.640Z,99.40
2018-08-31T01:45:54.724Z,99.40
2018-08-31T01:48:22.782Z,99.30
2018-08-31T01:50:56.217Z,99.50
2018-08-31T01:53:28.166Z,99.40
2018-08-31T01:55:56.392Z,99.60
2018-08-31T01:58:24.464Z,99.70
2018-08-31T02:00:52.532Z,99.80
2018-08-31T02:03:20.601Z,99.70
2018-08-31T02:05:48.657Z,99.80
2018-08-31T02:08:16.713Z,99.90
2018-08-31T02:10:44.759Z,99.80
2018-08-31T02:13:12.809Z,99.90
2018-08-31T02:15:40.852Z,99.90
2018-08-31T02:18:08.905Z,99.90
2018-08-31T02:20:36.964Z,99.90
2018-08-31T02:23:05.091Z,99.90
2018-08-31T02:25:33.143Z,99.90
2018-08-31T02:28:01.200Z,99.90
2018-08-31T02:30:29.253Z,99.90
2018-08-31T02:32:57.307Z,99.90
2018-08-31T02:35:25.387Z,99.90
2018-08-31T02:37:53.437Z,99.90
2018-08-31T02:40:21.492Z,99.90
2018-08-31T02:42:49.549Z,99.90
2018-08-31T02:45:17.626Z,99.90
2018-08-31T02:47:45.696Z,99.90
2018-08-31T02:50:13.769Z,99.90
2018-08-31T02:52:41.832Z,99.90
2018-08-31T02:55:09.886Z,99.90
2018-08-31T02:57:37.940Z,99.90
2018-08-31T03:00:05.992Z,99.90
2018-08-31T03:02:34.072Z,99.90
2018-08-31T03:05:02.119Z,99.90
2018-08-31T03:07:30.172Z,99.90
2018-08-31T03:09:58.435Z,99.90
2018-08-31T03:12:26.489Z,99.90
2018-08-31T03:14:54.557Z,99.90
2018-08-31T03:17:22.604Z,99.90
2018-08-31T03:19:50.649Z,99.90
2018-08-31T03:22:18.701Z,99.90
2018-08-31T03:24:46.755Z,99.90
2018-08-31T03:27:14.809Z,99.90
2018-08-31T03:29:42.852Z,99.90
2018-08-31T03:32:10.896Z,99.90
2018-08-31T03:34:38.952Z,99.90
2018-08-31T03:37:07.015Z,99.90
2018-08-31T03:39:35.056Z,99.90
2018-08-31T03:42:03.100Z,99.90
2018-08-31T03:44:31.157Z,99.90
2018-08-31T03:46:59.205Z,99.90
2018-08-31T03:49:27.273Z,99.90
2018-08-31T03:51:55.303Z,99.90
2018-08-31T03:54:23.362Z,99.90
2018-08-31T03:56:51.408Z,99.90
2018-08-31T03:59:19.456Z,99.90
2018-08-31T04:01:47.508Z,99.90
2018-08-31T04:04:15.568Z,99.90
2018-08-31T04:06:43.611Z,99.90
2018-08-31T04:09:11.667Z,99.90
2018-08-31T04:11:39.718Z,99.90
2018-08-31T04:14:07.768Z,99.90
2018-08-31T04:16:35.828Z,99.90
2018-08-31T04:19:08.153Z,99.90
2018-08-31T04:21:36.364Z,99.90
2018-08-31T04:24:04.420Z,99.90
2018-08-31T04:26:32.473Z,99.90
2018-08-31T04:29:00.537Z,99.90
2018-08-31T04:31:28.572Z,99.90
2018-08-31T04:33:56.636Z,99.90
2018-08-31T04:36:24.685Z,99.90
2018-08-31T04:38:52.753Z,99.90
2018-08-31T04:41:21.647Z,99.90
2018-08-31T04:43:49.708Z,99.90
2018-08-31T04:46:17.757Z,99.90
2018-08-31T04:48:45.877Z,99.90
2018-08-31T04:51:13.925Z,99.90
2018-08-31T04:53:41.969Z,99.90
2018-08-31T04:56:10.037Z,99.90
2018-08-31T04:58:38.089Z,99.90
2018-08-31T05:01:06.135Z,99.90
2018-08-31T05:03:34.184Z,99.90
2018-08-31T05:06:02.244Z,99.90
2018-08-31T05:08:37.097Z,99.90
2018-08-31T05:11:05.163Z,99.90
2018-08-31T05:13:33.217Z,99.90
2018-08-31T05:16:01.628Z,99.90
2018-08-31T05:18:29.787Z,99.90
2018-08-31T05:20:57.876Z,99.90
2018-08-31T05:23:25.904Z,99.90
2018-08-31T05:25:54.236Z,99.90
2018-08-31T05:28:22.324Z,99.90
2018-08-31T05:30:50.340Z,99.90
2018-08-31T05:33:18.465Z,99.90
2018-08-31T05:35:46.516Z,99.90
2018-08-31T05:38:14.568Z,99.90
2018-08-31T05:40:42.639Z,99.90
2018-08-31T05:43:10.709Z,99.90
2018-08-31T05:45:38.760Z,99.90
2018-08-31T05:48:06.821Z,99.90
2018-08-31T05:50:34.872Z,99.90
2018-08-31T05:53:02.930Z,99.90
2018-08-31T05:55:31.078Z,99.90
2018-08-31T05:57:59.348Z,99.90
2018-08-31T06:00:27.413Z,99.90
2018-08-31T06:02:55.624Z,99.90
2018-08-31T06:05:23.672Z,99.90
2018-08-31T06:07:51.740Z,99.90
2018-08-31T06:10:19.807Z,99.90
2018-08-31T06:12:47.865Z,99.90
2018-08-31T06:15:15.939Z,99.90
2018-08-31T06:17:43.980Z,99.90
2018-08-31T06:20:12.141Z,99.90
2018-08-31T06:22:40.129Z,99.90
2018-08-31T06:25:08.189Z,99.90
2018-08-31T06:27:36.244Z,99.90
2018-08-31T06:30:04.406Z,99.90
2018-08-31T06:32:32.508Z,99.90
2018-08-31T06:35:00.525Z,99.90
2018-08-31T06:37:28.583Z,99.90
2018-08-31T06:39:56.660Z,99.90
2018-08-31T06:42:24.888Z,99.90
2018-08-31T06:44:52.952Z,99.90
2018-08-31T06:47:21.016Z,99.90
2018-08-31T06:49:49.068Z,99.90
2018-08-31T06:52:17.154Z,99.90
2018-08-31T06:54:45.206Z,99.90
2018-08-31T06:57:13.281Z,99.90
2018-08-31T06:59:41.338Z,99.90
2018-08-31T07:02:09.386Z,99.90
2018-08-31T07:04:37.460Z,99.90
2018-08-31T07:07:05.561Z,99.30
2018-08-31T07:09:33.612Z,99.00
2018-08-31T07:12:01.670Z,99.10
2018-08-31T07:14:29.724Z,98.30
2018-08-31T07:16:57.779Z,97.30
2018-08-31T07:19:25.945Z,95.90
2018-08-31T07:21:53.896Z,93.70
2018-08-31T07:24:21.957Z,91.40
2018-08-31T07:26:50.288Z,86.30
2018-08-31T07:29:18.208Z,81.90
2018-08-31T07:31:46.284Z,76.30
2018-08-31T07:34:14.405Z,71.50
2018-08-31T07:36:42.447Z,67.10
2018-08-31T07:39:11.236Z,64.90
2018-08-31T07:41:39.308Z,62.10
2018-08-31T07:44:07.356Z,61.00
2018-08-31T07:46:35.630Z,61.00
2018-08-31T07:49:03.658Z,61.20
2018-08-31T07:51:31.723Z,60.80
2018-08-31T07:53:59.806Z,60.20
2018-08-31T07:56:27.836Z,58.70
2018-08-31T07:58:55.910Z,57.50
2018-08-31T08:01:24.002Z,55.00
2018-08-31T08:03:52.066Z,52.90
2018-08-31T08:06:20.121Z,51.80
2018-08-31T08:08:48.182Z,52.20
2018-08-31T08:11:16.233Z,52.40
2018-08-31T08:13:44.293Z,55.90
2018-08-31T08:16:12.391Z,57.00
2018-08-31T08:18:40.401Z,58.50
2018-08-31T08:21:08.466Z,59.80
2018-08-31T08:23:36.525Z,61.30
2018-08-31T08:26:04.584Z,62.50
2018-08-31T08:28:32.672Z,63.60
2018-08-31T08:31:00.676Z,64.30
2018-08-31T08:33:28.742Z,64.50
2018-08-31T08:35:56.813Z,64.80
2018-08-31T08:40:58.342Z,65.00
2018-08-31T08:43:26.569Z,63.60
2018-08-31T08:45:54.624Z,62.40
2018-08-31T08:48:22.752Z,61.40
2018-08-31T08:50:50.727Z,61.90
2018-08-31T08:53:19.100Z,62.80
2018-08-31T08:55:47.140Z,62.80
2018-08-31T08:58:15.268Z,63.30
2018-08-31T09:00:43.269Z,62.00
2018-08-31T09:03:11.324Z,62.20
2018-08-31T09:05:39.431Z,64.20
2018-08-31T09:08:07.415Z,64.00
2018-08-31T09:10:35.477Z,62.70
2018-08-31T09:13:03.525Z,61.90
2018-08-31T09:15:31.592Z,63.90
2018-08-31T09:17:59.657Z,61.40
2018-08-31T09:20:27.712Z,59.80
2018-08-31T09:22:55.796Z,55.30
2018-08-31T09:25:23.852Z,52.20
2018-08-31T09:27:51.928Z,48.60
2018-08-31T09:30:55.722Z,47.80
2018-08-31T09:33:23.776Z,45.80
2018-08-31T09:35:51.832Z,43.20
2018-08-31T09:38:19.945Z,43.20
2018-08-31T09:40:47.950Z,43.90
2018-08-31T09:43:15.997Z,44.30
2018-08-31T09:45:44.052Z,44.40
2018-08-31T09:48:12.116Z,45.30
2018-08-31T09:50:40.185Z,47.20
2018-08-31T09:53:08.269Z,46.30
2018-08-31T09:55:36.334Z,45.40
2018-08-31T09:58:04.400Z,46.20
2018-08-31T10:00:37.844Z,48.70
2018-08-31T10:03:06.143Z,49.60
2018-08-31T10:05:34.572Z,47.30
2018-08-31T10:08:02.641Z,47.40
2018-08-31T10:10:30.705Z,46.00
2018-08-31T10:12:58.864Z,45.30
2018-08-31T10:15:26.925Z,44.00
2018-08-31T10:17:54.976Z,41.80
2018-08-31T10:20:23.053Z,42.50
2018-08-31T10:22:51.135Z,43.30
2018-08-31T10:25:19.190Z,45.80
2018-08-31T10:27:47.269Z,46.90
2018-08-31T10:30:15.427Z,47.00
2018-08-31T10:32:43.411Z,45.10
2018-08-31T10:35:11.484Z,44.30
2018-08-31T10:37:39.544Z,43.80
2018-08-31T10:40:07.617Z,42.50
2018-08-31T10:42:35.688Z,41.10
2018-08-31T10:45:03.997Z,42.60
2018-08-31T10:47:31.994Z,42.70
2018-08-31T10:50:00.070Z,40.40
2018-08-31T10:52:28.130Z,40.00
2018-08-31T10:54:56.218Z,41.40
2018-08-31T10:57:24.276Z,41.30
2018-08-31T10:59:52.344Z,40.60
2018-08-31T11:02:20.423Z,40.80
2018-08-31T11:04:48.484Z,40.30
2018-08-31T11:07:16.564Z,43.50
2018-08-31T11:09:44.653Z,43.40
2018-08-31T11:12:12.721Z,43.00
2018-08-31T11:14:40.795Z,44.20
2018-08-31T11:17:08.847Z,45.10
2018-08-31T11:19:36.928Z,45.50
2018-08-31T11:22:05.009Z,45.40
2018-08-31T11:24:33.080Z,46.60
2018-08-31T11:27:01.150Z,45.40
2018-08-31T11:29:29.248Z,42.70
2018-08-31T11:31:57.296Z,42.40
2018-08-31T11:34:25.359Z,41.10
2018-08-31T11:36:53.428Z,40.10
2018-08-31T11:39:21.500Z,41.00
2018-08-31T11:41:49.554Z,41.90
2018-08-31T11:44:17.625Z,43.60
2018-08-31T11:46:45.688Z,43.70
2018-08-31T11:49:13.748Z,43.00
2018-08-31T11:51:41.842Z,43.70
2018-08-31T11:54:09.891Z,43.60
2018-08-31T11:56:37.948Z,45.90
2018-08-31T11:59:06.025Z,45.90
2018-08-31T12:01:34.135Z,46.10
2018-08-31T12:04:02.181Z,47.10
2018-08-31T12:06:30.261Z,45.60
2018-08-31T12:08:58.337Z,45.80
2018-08-31T12:11:26.405Z,46.00
2018-08-31T12:13:54.468Z,46.40
2018-08-31T12:16:22.521Z,44.30
2018-08-31T12:18:50.585Z,44.10
2018-08-31T12:21:18.647Z,44.50
2018-08-31T12:23:46.723Z,45.50
2018-08-31T12:26:14.788Z,44.30
2018-08-31T12:28:42.860Z,44.10
2018-08-31T12:31:10.938Z,45.00
2018-08-31T12:33:38.989Z,45.00
2018-08-31T12:36:07.062Z,45.00
2018-08-31T12:38:35.121Z,44.60
2018-08-31T12:41:03.173Z,46.30
2018-08-31T12:43:31.233Z,45.50
2018-08-31T12:45:59.310Z,43.20
2018-08-31T12:48:27.366Z,45.40
2018-08-31T12:50:55.444Z,44.50
2018-08-31T12:53:23.583Z,46.10
2018-08-31T12:55:51.639Z,46.10
2018-08-31T12:58:19.712Z,45.90
2018-08-31T13:00:47.787Z,44.50
2018-08-31T13:03:15.851Z,43.80
2018-08-31T13:05:43.928Z,44.10
2018-08-31T13:08:11.988Z,44.30
2018-08-31T13:10:40.046Z,44.60
2018-08-31T13:13:08.121Z,44.70
2018-08-31T13:15:36.197Z,45.10
2018-08-31T13:18:04.296Z,44.10
2018-08-31T13:20:32.373Z,43.00
2018-08-31T13:23:00.446Z,42.00
2018-08-31T13:25:28.516Z,41.90
2018-08-31T13:27:56.578Z,39.40
2018-08-31T13:30:24.650Z,42.20
2018-08-31T13:32:52.708Z,41.40
2018-08-31T13:35:21.014Z,38.00
2018-08-31T13:37:49.118Z,40.80
2018-08-31T13:40:17.140Z,39.90
2018-08-31T13:42:45.208Z,40.60
2018-08-31T13:45:13.267Z,42.20
2018-08-31T13:47:41.338Z,42.60
2018-08-31T13:50:09.389Z,41.20
2018-08-31T13:52:37.478Z,40.50
2018-08-31T13:55:05.520Z,39.90
2018-08-31T13:57:33.588Z,41.90
2018-08-31T14:00:01.644Z,41.30
2018-08-31T14:02:29.845Z,41.80
2018-08-31T14:04:57.917Z,42.90
2018-08-31T14:07:26.026Z,42.70
2018-08-31T14:09:54.104Z,39.90
2018-08-31T14:12:22.170Z,39.90
2018-08-31T14:14:50.264Z,41.30
2018-08-31T14:17:18.329Z,39.60
2018-08-31T14:19:46.390Z,41.40
2018-08-31T14:22:14.461Z,40.10
2018-08-31T14:24:42.531Z,41.00
2018-08-31T14:27:10.592Z,41.50
2018-08-31T14:29:38.705Z,39.80
2018-08-31T14:32:06.716Z,41.20
2018-08-31T14:34:34.789Z,38.90
2018-08-31T14:37:02.869Z,38.80
2018-08-31T14:39:30.928Z,40.40
2018-08-31T14:41:58.997Z,39.40
2018-08-31T14:44:27.070Z,39.80
2018-08-31T14:46:55.145Z,39.50
2018-08-31T14:49:23.216Z,40.20
2018-08-31T14:51:51.284Z,40.10
2018-08-31T14:54:19.353Z,40.40
2018-08-31T14:56:47.424Z,40.50
2018-08-31T14:59:15.494Z,39.30
2018-08-31T15:01:43.889Z,39.70
2018-08-31T15:04:11.951Z,40.50
2018-08-31T15:06:40.020Z,40.00
2018-08-31T15:09:08.957Z,40.20
2018-08-31T15:11:37.010Z,40.70
2018-08-31T15:14:05.085Z,41.90
2018-08-31T15:16:33.140Z,41.70
2018-08-31T15:19:01.269Z,43.50
2018-08-31T15:21:29.347Z,42.50
2018-08-31T15:23:57.401Z,41.00
2018-08-31T15:26:25.529Z,41.10
2018-08-31T15:28:53.736Z,42.70
2018-08-31T15:31:21.797Z,43.90
2018-08-31T15:33:49.840Z,42.40
2018-08-31T15:36:17.917Z,42.80
2018-08-31T15:38:45.968Z,44.00
2018-08-31T15:41:14.024Z,43.00
2018-08-31T15:43:42.241Z,44.40
2018-08-31T15:46:10.284Z,44.50
2018-08-31T15:48:38.377Z,45.00
2018-08-31T15:51:06.431Z,46.10
2018-08-31T15:53:34.490Z,45.20
2018-08-31T15:56:02.595Z,43.90
2018-08-31T15:58:30.748Z,43.80
2018-08-31T16:00:58.812Z,43.10
2018-08-31T16:03:26.875Z,43.20
2018-08-31T16:05:54.924Z,44.10
2018-08-31T16:08:22.988Z,43.00
2018-08-31T16:10:51.035Z,44.30
2018-08-31T16:13:19.108Z,46.30
2018-08-31T16:15:47.155Z,45.00
2018-08-31T16:18:15.211Z,46.20
2018-08-31T16:20:43.307Z,43.00
2018-08-31T16:23:11.344Z,44.90
2018-08-31T16:25:39.393Z,46.00
2018-08-31T16:28:07.452Z,46.50
2018-08-31T16:30:35.529Z,46.60
2018-08-31T16:33:03.576Z,45.10
2018-08-31T16:35:31.651Z,46.10
2018-08-31T16:37:59.722Z,46.10
2018-08-31T16:40:27.785Z,45.80
2018-08-31T16:42:55.840Z,46.70
2018-08-31T16:45:23.913Z,46.20
2018-08-31T16:47:51.965Z,45.10
2018-08-31T16:50:20.025Z,45.80
2018-08-31T16:52:48.089Z,45.50
2018-08-31T16:55:16.161Z,46.00
2018-08-31T16:57:44.233Z,45.50
2018-08-31T17:00:12.374Z,44.70
2018-08-31T17:02:40.369Z,45.60
2018-08-31T17:05:08.424Z,47.00
2018-08-31T17:07:36.536Z,47.40
2018-08-31T17:10:04.564Z,48.60
2018-08-31T17:12:32.629Z,48.20
2018-08-31T17:15:00.696Z,46.60
2018-08-31T17:17:28.756Z,45.80
2018-08-31T17:19:56.821Z,46.40
2018-08-31T17:22:24.880Z,46.60
2018-08-31T17:24:52.956Z,49.10
2018-08-31T17:27:26.406Z,50.10
2018-08-31T17:29:54.531Z,50.00
2018-08-31T17:32:28.096Z,51.40
2018-08-31T17:35:01.670Z,51.40
2018-08-31T17:37:30.542Z,51.50
2018-08-31T17:39:58.868Z,51.60
2018-08-31T17:42:28.900Z,51.90
2018-08-31T17:44:56.963Z,51.10
2018-08-31T17:47:25.025Z,52.60
2018-08-31T17:49:53.089Z,53.40
2018-08-31T17:52:21.165Z,53.90
2018-08-31T17:54:49.244Z,52.60
2018-08-31T17:57:17.333Z,53.00
2018-08-31T17:59:45.545Z,54.00
2018-08-31T18:02:13.603Z,54.00
2018-08-31T18:04:41.658Z,53.90
2018-08-31T18:07:09.718Z,54.00
2018-08-31T18:09:37.802Z,54.40
2018-08-31T18:12:05.892Z,54.10
2018-08-31T18:14:33.913Z,53.70
2018-08-31T18:17:01.974Z,55.00
2018-08-31T18:19:30.053Z,54.70
2018-08-31T18:21:58.113Z,55.00
2018-08-31T18:24:26.179Z,55.80
2018-08-31T18:26:54.241Z,55.50
2018-08-31T18:29:22.353Z,56.70
2018-08-31T18:31:50.388Z,56.60
2018-08-31T18:34:18.443Z,56.80
2018-08-31T18:36:46.506Z,57.60
2018-08-31T18:39:14.576Z,58.20
2018-08-31T18:41:42.627Z,58.20
2018-08-31T18:44:10.700Z,58.10
2018-08-31T18:46:38.772Z,57.60
2018-08-31T18:49:06.832Z,58.20
2018-08-31T18:51:34.889Z,58.50
2018-08-31T18:54:02.972Z,57.00
2018-08-31T18:56:31.003Z,56.80
2018-08-31T18:58:59.068Z,57.90
2018-08-31T19:01:27.127Z,58.10
2018-08-31T19:03:55.197Z,59.30
2018-08-31T19:06:23.255Z,59.10
2018-08-31T19:08:51.312Z,59.30
2018-08-31T19:11:19.457Z,59.50
2018-08-31T19:13:47.528Z,60.20
2018-08-31T19:16:15.596Z,59.20
2018-08-31T19:18:43.676Z,60.20
2018-08-31T19:21:11.745Z,59.60
2018-08-31T19:23:39.803Z,59.30
2018-08-31T19:26:07.857Z,59.20
2018-08-31T19:28:35.925Z,60.30
2018-08-31T19:31:04.073Z,61.00
2018-08-31T19:33:32.125Z,60.30
2018-08-31T19:36:00.195Z,60.40
2018-08-31T19:38:28.621Z,61.40
2018-08-31T19:40:56.700Z,60.60
2018-08-31T19:43:24.725Z,61.00
2018-08-31T19:45:52.799Z,62.10
2018-08-31T19:48:20.964Z,62.50
2018-08-31T19:50:49.064Z,62.90
2018-08-31T19:53:17.200Z,62.80
2018-08-31T19:55:45.265Z,63.30
2018-08-31T19:58:13.322Z,64.40
2018-08-31T20:00:41.378Z,64.20
2018-08-31T20:03:09.449Z,63.20
2018-08-31T20:05:37.864Z,64.30
2018-08-31T20:08:05.917Z,63.60
2018-08-31T20:10:33.969Z,64.20
2018-08-31T20:13:02.025Z,63.60
2018-08-31T20:15:30.102Z,63.90
2018-08-31T20:17:58.144Z,64.40
2018-08-31T20:20:26.209Z,64.10
2018-08-31T20:22:54.271Z,63.80
2018-08-31T20:25:22.351Z,63.90
2018-08-31T20:27:50.480Z,63.50
2018-08-31T20:30:18.545Z,64.00
2018-08-31T20:32:46.601Z,64.10
2018-08-31T20:35:14.670Z,64.30
2018-08-31T20:37:42.736Z,64.70
2018-08-31T20:40:10.965Z,65.20
2018-08-31T20:42:39.029Z,64.90
2018-08-31T20:45:07.639Z,65.40
2018-08-31T20:47:35.692Z,64.80
2018-08-31T20:50:03.773Z,65.60
2018-08-31T20:52:31.846Z,65.10
2018-08-31T20:54:59.892Z,65.40
2018-08-31T20:57:28.152Z,65.40
2018-08-31T20:59:56.868Z,65.70
2018-08-31T21:02:25.022Z,65.40
2018-08-31T21:04:53.041Z,66.00
2018-08-31T21:07:21.107Z,65.40
2018-08-31T21:09:49.170Z,65.20
2018-08-31T21:12:17.293Z,66.70
2018-08-31T21:14:45.368Z,66.70
2018-08-31T21:17:13.432Z,66.60
2018-08-31T21:19:41.480Z,66.40
2018-08-31T21:22:09.541Z,66.60
2018-08-31T21:24:37.600Z,66.80
2018-08-31T21:27:05.664Z,67.30
2018-08-31T21:29:33.716Z,67.10
2018-08-31T21:32:01.805Z,67.00
2018-08-31T21:34:29.845Z,67.70
2018-08-31T21:36:57.895Z,68.00
2018-08-31T21:39:25.957Z,68.40
2018-08-31T21:41:54.070Z,69.00
2018-08-31T21:44:22.090Z,69.10
2018-08-31T21:46:50.144Z,68.90
2018-08-31T21:49:18.347Z,69.00
2018-08-31T21:51:46.325Z,70.10
2018-08-31T21:54:14.397Z,69.60
2018-08-31T21:56:42.444Z,69.60
2018-08-31T21:59:10.499Z,68.90
2018-08-31T22:01:39.688Z,69.10
2018-08-31T22:04:08.697Z,68.10
2018-08-31T22:06:37.405Z,68.80
2018-08-31T22:09:06.264Z,69.10
2018-08-31T22:11:34.319Z,69.60
2018-08-31T22:14:03.086Z,69.80
2018-08-31T22:16:31.139Z,71.20
2018-08-31T22:18:59.192Z,70.90
2018-08-31T22:21:27.270Z,71.70
2018-08-31T22:23:55.320Z,71.50
2018-08-31T22:26:23.389Z,71.40
2018-08-31T22:28:51.440Z,72.30
2018-08-31T22:31:19.503Z,72.80
2018-08-31T22:33:47.567Z,73.10
2018-08-31T22:36:15.643Z,73.40
2018-08-31T22:38:43.710Z,74.10
2018-08-31T22:41:11.775Z,74.80
2018-08-31T22:43:45.328Z,75.30
2018-08-31T22:46:13.376Z,76.30
2018-08-31T22:48:41.428Z,77.10
2018-08-31T22:51:09.486Z,76.80
2018-08-31T22:53:37.535Z,77.70
2018-08-31T22:56:05.612Z,78.40
2018-08-31T22:58:33.682Z,78.90
2018-08-31T23:01:01.734Z,79.00
2018-08-31T23:03:29.792Z,78.50
2018-08-31T23:05:57.858Z,79.70
2018-08-31T23:08:25.935Z,80.00
2018-08-31T23:10:53.987Z,80.50
2018-08-31T23:13:22.049Z,80.90
2018-08-31T23:15:50.113Z,81.00
2018-08-31T23:18:18.167Z,82.00
2018-08-31T23:20:46.238Z,81.70
2018-08-31T23:23:19.775Z,81.40
2018-08-31T23:25:48.621Z,81.20
2018-08-31T23:28:17.007Z,81.30
2018-08-31T23:30:45.188Z,81.00
2018-08-31T23:33:13.251Z,81.10
2018-08-31T23:35:41.301Z,81.00
2018-08-31T23:38:09.540Z,81.40
2018-08-31T23:40:37.621Z,82.20
2018-08-31T23:43:05.694Z,83.00
2018-08-31T23:45:33.733Z,82.50
2018-08-31T23:48:01.793Z,83.20
2018-08-31T23:50:29.877Z,83.90
2018-08-31T23:52:57.941Z,85.80
2018-08-31T23:55:26.116Z,85.60
2018-08-31T23:57:54.180Z,85.30
